sensor_id;sensor_type;location;lat;lon;timestamp;temperature;humidity
44487;DHT22;30191;50.908;6.962;2022-09-14T00:00:59;20.60;99.90
44487;DHT22;30191;50.908;6.962;2022-09-14T00:03:25;20.70;99.90
44487;DHT22;30191;50.908;6.962;2022-09-14T00:05:51;20.60;99.90
44487;DHT22;30191;50.908;6.962;2022-09-14T00:08:17;20.60;99.90
44487;DHT22;30191;50.908;6.962;2022-09-14T00:10:45;20.50;99.90
44487;DHT22;30191;50.908;6.962;2022-09-14T00:13:12;20.60;99.90
44487;DHT22;30191;50.908;6.962;2022-09-14T00:15:40;20.50;99.90
44487;DHT22;30191;50.908;6.962;2022-09-14T00:18:08;20.50;99.90
44487;DHT22;30191;50.908;6.962;2022-09-14T00:20:35;20.50;99.90
44487;DHT22;30191;50.908;6.962;2022-09-14T00:23:01;20.50;99.90
44487;DHT22;30191;50.908;6.962;2022-09-14T00:25:30;20.50;99.90
44487;DHT22;30191;50.908;6.962;2022-09-14T00:27:57;20.50;99.90
44487;DHT22;30191;50.908;6.962;2022-09-14T00:30:23;20.50;99.90
44487;DHT22;30191;50.908;6.962;2022-09-14T00:32:50;20.50;99.90
44487;DHT22;30191;50.908;6.962;2022-09-14T00:35:16;20.50;99.90
44487;DHT22;30191;50.908;6.962;2022-09-14T00:37:42;20.50;99.90
44487;DHT22;30191;50.908;6.962;2022-09-14T00:40:09;20.40;99.90
44487;DHT22;30191;50.908;6.962;2022-09-14T00:42:37;20.40;99.90
44487;DHT22;30191;50.908;6.962;2022-09-14T00:45:31;20.30;99.90
44487;DHT22;30191;50.908;6.962;2022-09-14T00:47:57;20.30;99.90
44487;DHT22;30191;50.908;6.962;2022-09-14T00:50:23;20.30;99.90
44487;DHT22;30191;50.908;6.962;2022-09-14T00:52:49;20.30;99.90
44487;DHT22;30191;50.908;6.962;2022-09-14T00:55:19;20.30;99.90
44487;DHT22;30191;50.908;6.962;2022-09-14T00:57:51;20.30;99.90
44487;DHT22;30191;50.908;6.962;2022-09-14T01:00:21;20.30;99.90
44487;DHT22;30191;50.908;6.962;2022-09-14T01:02:48;20.30;99.90
44487;DHT22;30191;50.908;6.962;2022-09-14T01:05:14;20.30;99.90
44487;DHT22;30191;50.908;6.962;2022-09-14T01:14:01;20.30;99.90
44487;DHT22;30191;50.908;6.962;2022-09-14T01:22:07;20.30;99.90
44487;DHT22;30191;50.908;6.962;2022-09-14T01:24:44;20.30;99.90
44487;DHT22;30191;50.908;6.962;2022-09-14T01:27:37;20.30;99.90
44487;DHT22;30191;50.908;6.962;2022-09-14T01:30:14;20.20;99.90
44487;DHT22;30191;50.908;6.962;2022-09-14T01:32:46;20.30;99.90
44487;DHT22;30191;50.908;6.962;2022-09-14T01:35:35;20.20;99.90
44487;DHT22;30191;50.908;6.962;2022-09-14T01:38:19;20.20;99.90
44487;DHT22;30191;50.908;6.962;2022-09-14T01:40:48;20.30;99.90
44487;DHT22;30191;50.908;6.962;2022-09-14T01:45:52;20.20;99.90
44487;DHT22;30191;50.908;6.962;2022-09-14T01:48:23;20.10;99.90
44487;DHT22;30191;50.908;6.962;2022-09-14T01:50:55;20.00;99.90
44487;DHT22;30191;50.908;6.962;2022-09-14T01:53:38;19.90;99.90
44487;DHT22;30191;50.908;6.962;2022-09-14T02:01:31;20.00;99.90
44487;DHT22;30191;50.908;6.962;2022-09-14T02:04:07;20.00;99.90
44487;DHT22;30191;50.908;6.962;2022-09-14T02:06:46;19.90;99.90
44487;DHT22;30191;50.908;6.962;2022-09-14T02:09:17;20.00;99.90
44487;DHT22;30191;50.908;6.962;2022-09-14T02:11:44;20.00;99.90
44487;DHT22;30191;50.908;6.962;2022-09-14T02:14:10;20.00;99.90
44487;DHT22;30191;50.908;6.962;2022-09-14T02:16:36;20.00;99.90
44487;DHT22;30191;50.908;6.962;2022-09-14T02:19:02;20.00;99.90
44487;DHT22;30191;50.908;6.962;2022-09-14T02:21:31;20.00;99.90
44487;DHT22;30191;50.908;6.962;2022-09-14T02:24:00;20.10;99.90
44487;DHT22;30191;50.908;6.962;2022-09-14T02:26:27;20.10;99.90
44487;DHT22;30191;50.908;6.962;2022-09-14T02:28:53;20.00;99.90
44487;DHT22;30191;50.908;6.962;2022-09-14T02:31:38;20.10;99.90
44487;DHT22;30191;50.908;6.962;2022-09-14T02:42:33;20.00;99.90
44487;DHT22;30191;50.908;6.962;2022-09-14T02:48:25;20.00;99.90
44487;DHT22;30191;50.908;6.962;2022-09-14T02:51:20;20.00;99.90
44487;DHT22;30191;50.908;6.962;2022-09-14T02:54:03;20.00;99.90
44487;DHT22;30191;50.908;6.962;2022-09-14T02:56:30;19.90;99.90
44487;DHT22;30191;50.908;6.962;2022-09-14T02:58:57;20.00;99.90
44487;DHT22;30191;50.908;6.962;2022-09-14T03:01:23;20.00;99.90
44487;DHT22;30191;50.908;6.962;2022-09-14T03:03:49;20.00;99.90
44487;DHT22;30191;50.908;6.962;2022-09-14T03:06:15;20.00;99.90
44487;DHT22;30191;50.908;6.962;2022-09-14T03:08:42;20.10;99.90
44487;DHT22;30191;50.908;6.962;2022-09-14T03:11:08;20.20;99.90
44487;DHT22;30191;50.908;6.962;2022-09-14T03:13:34;20.20;99.90
44487;DHT22;30191;50.908;6.962;2022-09-14T03:16:14;20.30;99.90
44487;DHT22;30191;50.908;6.962;2022-09-14T03:18:40;20.30;99.90
44487;DHT22;30191;50.908;6.962;2022-09-14T03:21:11;20.20;99.90
44487;DHT22;30191;50.908;6.962;2022-09-14T03:23:39;20.20;99.90
44487;DHT22;30191;50.908;6.962;2022-09-14T03:26:14;20.30;99.90
44487;DHT22;30191;50.908;6.962;2022-09-14T03:28:39;20.30;99.90
44487;DHT22;30191;50.908;6.962;2022-09-14T03:31:07;20.30;99.90
44487;DHT22;30191;50.908;6.962;2022-09-14T03:33:34;20.20;99.90
44487;DHT22;30191;50.908;6.962;2022-09-14T03:36:07;20.20;99.90
44487;DHT22;30191;50.908;6.962;2022-09-14T03:38:33;20.20;99.90
44487;DHT22;30191;50.908;6.962;2022-09-14T03:40:58;20.20;99.90
44487;DHT22;30191;50.908;6.962;2022-09-14T03:43:24;20.20;99.90
44487;DHT22;30191;50.908;6.962;2022-09-14T03:45:51;20.20;99.90
44487;DHT22;30191;50.908;6.962;2022-09-14T03:48:16;20.20;99.90
44487;DHT22;30191;50.908;6.962;2022-09-14T03:50:42;20.20;99.90
44487;DHT22;30191;50.908;6.962;2022-09-14T03:53:08;20.20;99.90
44487;DHT22;30191;50.908;6.962;2022-09-14T03:55:33;20.30;99.90
44487;DHT22;30191;50.908;6.962;2022-09-14T03:57:59;20.30;99.90
44487;DHT22;30191;50.908;6.962;2022-09-14T04:00:25;20.30;99.90
44487;DHT22;30191;50.908;6.962;2022-09-14T04:02:51;20.30;99.90
44487;DHT22;30191;50.908;6.962;2022-09-14T04:05:16;20.30;99.90
44487;DHT22;30191;50.908;6.962;2022-09-14T04:07:42;20.30;99.90
44487;DHT22;30191;50.908;6.962;2022-09-14T04:10:08;20.30;99.90
44487;DHT22;30191;50.908;6.962;2022-09-14T04:12:37;20.20;99.90
44487;DHT22;30191;50.908;6.962;2022-09-14T04:15:06;20.20;99.90
44487;DHT22;30191;50.908;6.962;2022-09-14T04:17:33;20.20;99.90
44487;DHT22;30191;50.908;6.962;2022-09-14T04:19:58;20.10;99.90
44487;DHT22;30191;50.908;6.962;2022-09-14T04:22:24;20.20;99.90
44487;DHT22;30191;50.908;6.962;2022-09-14T04:24:50;20.20;99.90
44487;DHT22;30191;50.908;6.962;2022-09-14T04:27:15;20.20;99.90
44487;DHT22;30191;50.908;6.962;2022-09-14T04:29:41;20.20;99.90
44487;DHT22;30191;50.908;6.962;2022-09-14T04:32:07;20.10;99.90
44487;DHT22;30191;50.908;6.962;2022-09-14T04:34:33;20.20;99.90
44487;DHT22;30191;50.908;6.962;2022-09-14T04:37:00;20.20;99.90
44487;DHT22;30191;50.908;6.962;2022-09-14T04:39:25;20.20;99.90
44487;DHT22;30191;50.908;6.962;2022-09-14T04:41:51;20.10;99.90
44487;DHT22;30191;50.908;6.962;2022-09-14T04:44:17;20.10;99.90
44487;DHT22;30191;50.908;6.962;2022-09-14T04:46:42;20.10;99.90
44487;DHT22;30191;50.908;6.962;2022-09-14T04:49:08;20.10;99.90
44487;DHT22;30191;50.908;6.962;2022-09-14T04:51:35;20.10;99.90
44487;DHT22;30191;50.908;6.962;2022-09-14T04:54:05;20.00;99.90
44487;DHT22;30191;50.908;6.962;2022-09-14T04:56:32;20.10;99.90
44487;DHT22;30191;50.908;6.962;2022-09-14T04:59:00;20.10;99.90
44487;DHT22;30191;50.908;6.962;2022-09-14T05:01:34;20.10;99.90
44487;DHT22;30191;50.908;6.962;2022-09-14T05:04:00;20.10;99.90
44487;DHT22;30191;50.908;6.962;2022-09-14T05:06:29;20.10;99.90
44487;DHT22;30191;50.908;6.962;2022-09-14T05:08:55;20.20;99.90
44487;DHT22;30191;50.908;6.962;2022-09-14T05:11:23;20.20;99.90
44487;DHT22;30191;50.908;6.962;2022-09-14T05:13:50;20.20;99.90
44487;DHT22;30191;50.908;6.962;2022-09-14T05:16:19;20.20;99.90
44487;DHT22;30191;50.908;6.962;2022-09-14T05:18:45;20.10;99.90
44487;DHT22;30191;50.908;6.962;2022-09-14T05:21:16;20.10;99.90
44487;DHT22;30191;50.908;6.962;2022-09-14T05:23:42;20.20;99.90
44487;DHT22;30191;50.908;6.962;2022-09-14T05:26:08;20.20;99.90
44487;DHT22;30191;50.908;6.962;2022-09-14T05:28:37;20.10;99.90
44487;DHT22;30191;50.908;6.962;2022-09-14T05:31:08;20.20;99.90
44487;DHT22;30191;50.908;6.962;2022-09-14T05:33:34;20.10;99.90
44487;DHT22;30191;50.908;6.962;2022-09-14T05:36:02;20.20;99.90
44487;DHT22;30191;50.908;6.962;2022-09-14T05:38:30;20.10;99.90
44487;DHT22;30191;50.908;6.962;2022-09-14T05:40:56;20.10;99.90
44487;DHT22;30191;50.908;6.962;2022-09-14T05:43:22;20.10;99.90
44487;DHT22;30191;50.908;6.962;2022-09-14T05:45:48;20.10;99.90
44487;DHT22;30191;50.908;6.962;2022-09-14T05:48:14;20.10;99.90
44487;DHT22;30191;50.908;6.962;2022-09-14T05:50:40;20.20;99.90
44487;DHT22;30191;50.908;6.962;2022-09-14T05:53:06;20.20;99.90
44487;DHT22;30191;50.908;6.962;2022-09-14T05:55:31;20.10;99.90
44487;DHT22;30191;50.908;6.962;2022-09-14T05:57:57;20.10;99.90
44487;DHT22;30191;50.908;6.962;2022-09-14T06:00:23;20.10;99.90
44487;DHT22;30191;50.908;6.962;2022-09-14T06:02:51;20.10;99.90
44487;DHT22;30191;50.908;6.962;2022-09-14T06:05:18;20.00;99.90
44487;DHT22;30191;50.908;6.962;2022-09-14T06:07:44;20.00;99.90
44487;DHT22;30191;50.908;6.962;2022-09-14T06:10:11;20.00;99.90
44487;DHT22;30191;50.908;6.962;2022-09-14T06:12:37;20.00;99.90
44487;DHT22;30191;50.908;6.962;2022-09-14T06:15:03;20.00;99.90
44487;DHT22;30191;50.908;6.962;2022-09-14T06:17:29;20.10;99.90
44487;DHT22;30191;50.908;6.962;2022-09-14T06:19:55;20.00;99.90
44487;DHT22;30191;50.908;6.962;2022-09-14T06:22:21;20.00;99.90
44487;DHT22;30191;50.908;6.962;2022-09-14T06:24:47;19.90;99.90
44487;DHT22;30191;50.908;6.962;2022-09-14T06:27:12;19.90;99.90
44487;DHT22;30191;50.908;6.962;2022-09-14T06:29:39;19.90;99.90
44487;DHT22;30191;50.908;6.962;2022-09-14T06:32:05;19.80;99.90
44487;DHT22;30191;50.908;6.962;2022-09-14T06:34:31;19.80;99.90
44487;DHT22;30191;50.908;6.962;2022-09-14T06:36:56;19.70;99.90
44487;DHT22;30191;50.908;6.962;2022-09-14T06:39:22;19.60;99.90
44487;DHT22;30191;50.908;6.962;2022-09-14T06:41:49;19.60;99.90
44487;DHT22;30191;50.908;6.962;2022-09-14T06:44:16;19.60;99.90
44487;DHT22;30191;50.908;6.962;2022-09-14T06:46:42;19.60;99.90
44487;DHT22;30191;50.908;6.962;2022-09-14T06:49:11;19.50;99.90
44487;DHT22;30191;50.908;6.962;2022-09-14T06:51:42;19.50;99.90
44487;DHT22;30191;50.908;6.962;2022-09-14T06:54:09;19.50;99.90
44487;DHT22;30191;50.908;6.962;2022-09-14T06:56:37;19.40;99.90
44487;DHT22;30191;50.908;6.962;2022-09-14T06:59:03;19.40;99.90
44487;DHT22;30191;50.908;6.962;2022-09-14T07:01:29;19.40;99.90
44487;DHT22;30191;50.908;6.962;2022-09-14T07:03:55;19.40;99.90
44487;DHT22;30191;50.908;6.962;2022-09-14T07:06:27;19.30;99.90
44487;DHT22;30191;50.908;6.962;2022-09-14T07:08:53;19.30;99.90
44487;DHT22;30191;50.908;6.962;2022-09-14T07:11:22;19.30;99.90
44487;DHT22;30191;50.908;6.962;2022-09-14T07:13:48;19.20;99.90
44487;DHT22;30191;50.908;6.962;2022-09-14T07:16:14;19.20;99.90
44487;DHT22;30191;50.908;6.962;2022-09-14T07:18:41;19.20;99.90
44487;DHT22;30191;50.908;6.962;2022-09-14T07:21:12;19.10;99.90
44487;DHT22;30191;50.908;6.962;2022-09-14T07:23:38;19.10;99.90
44487;DHT22;30191;50.908;6.962;2022-09-14T07:26:10;19.00;99.90
44487;DHT22;30191;50.908;6.962;2022-09-14T07:28:37;19.00;99.90
44487;DHT22;30191;50.908;6.962;2022-09-14T07:31:04;19.00;99.90
44487;DHT22;30191;50.908;6.962;2022-09-14T07:33:30;19.10;99.90
44487;DHT22;30191;50.908;6.962;2022-09-14T07:36:09;19.00;99.90
44487;DHT22;30191;50.908;6.962;2022-09-14T07:38:35;19.00;99.90
44487;DHT22;30191;50.908;6.962;2022-09-14T07:41:01;19.00;99.90
44487;DHT22;30191;50.908;6.962;2022-09-14T07:43:28;19.00;99.90
44487;DHT22;30191;50.908;6.962;2022-09-14T07:45:53;19.00;99.90
44487;DHT22;30191;50.908;6.962;2022-09-14T07:48:19;19.00;99.90
44487;DHT22;30191;50.908;6.962;2022-09-14T07:50:46;19.00;99.90
44487;DHT22;30191;50.908;6.962;2022-09-14T07:53:12;19.00;99.90
44487;DHT22;30191;50.908;6.962;2022-09-14T07:55:38;19.00;99.90
44487;DHT22;30191;50.908;6.962;2022-09-14T07:58:05;19.10;99.90
44487;DHT22;30191;50.908;6.962;2022-09-14T08:00:31;19.20;99.90
44487;DHT22;30191;50.908;6.962;2022-09-14T08:02:57;19.20;99.90
44487;DHT22;30191;50.908;6.962;2022-09-14T08:05:24;19.30;99.90
44487;DHT22;30191;50.908;6.962;2022-09-14T08:07:54;19.30;99.90
44487;DHT22;30191;50.908;6.962;2022-09-14T08:10:20;19.30;99.90
44487;DHT22;30191;50.908;6.962;2022-09-14T08:12:53;19.40;99.90
44487;DHT22;30191;50.908;6.962;2022-09-14T08:15:20;19.40;99.90
44487;DHT22;30191;50.908;6.962;2022-09-14T08:17:47;19.40;99.90
44487;DHT22;30191;50.908;6.962;2022-09-14T08:20:12;19.40;99.90
44487;DHT22;30191;50.908;6.962;2022-09-14T08:22:44;19.40;99.90
44487;DHT22;30191;50.908;6.962;2022-09-14T08:25:11;19.40;99.90
44487;DHT22;30191;50.908;6.962;2022-09-14T08:27:37;19.40;99.90
44487;DHT22;30191;50.908;6.962;2022-09-14T08:30:03;19.30;99.90
44487;DHT22;30191;50.908;6.962;2022-09-14T08:32:29;19.30;99.90
44487;DHT22;30191;50.908;6.962;2022-09-14T08:34:56;19.30;99.90
44487;DHT22;30191;50.908;6.962;2022-09-14T08:37:21;19.30;99.90
44487;DHT22;30191;50.908;6.962;2022-09-14T08:39:47;19.30;99.90
44487;DHT22;30191;50.908;6.962;2022-09-14T08:42:17;19.30;99.90
44487;DHT22;30191;50.908;6.962;2022-09-14T08:44:51;19.30;99.90
44487;DHT22;30191;50.908;6.962;2022-09-14T08:47:26;19.40;99.90
44487;DHT22;30191;50.908;6.962;2022-09-14T08:52:48;19.30;99.90
44487;DHT22;30191;50.908;6.962;2022-09-14T09:00:44;19.10;99.90
44487;DHT22;30191;50.908;6.962;2022-09-14T09:11:22;19.10;99.90
44487;DHT22;30191;50.908;6.962;2022-09-14T09:13:50;19.10;99.90
44487;DHT22;30191;50.908;6.962;2022-09-14T09:16:23;19.10;99.90
44487;DHT22;30191;50.908;6.962;2022-09-14T09:19:01;19.10;99.90
44487;DHT22;30191;50.908;6.962;2022-09-14T09:21:42;19.10;99.90
44487;DHT22;30191;50.908;6.962;2022-09-14T09:24:38;19.00;99.90
44487;DHT22;30191;50.908;6.962;2022-09-14T09:27:13;19.10;99.90
44487;DHT22;30191;50.908;6.962;2022-09-14T09:29:42;19.10;99.90
44487;DHT22;30191;50.908;6.962;2022-09-14T09:32:24;19.10;99.90
44487;DHT22;30191;50.908;6.962;2022-09-14T09:34:51;19.20;99.90
44487;DHT22;30191;50.908;6.962;2022-09-14T09:37:19;19.20;99.90
44487;DHT22;30191;50.908;6.962;2022-09-14T09:39:46;19.20;99.90
44487;DHT22;30191;50.908;6.962;2022-09-14T09:42:32;19.20;99.90
44487;DHT22;30191;50.908;6.962;2022-09-14T09:47:39;19.20;99.90
44487;DHT22;30191;50.908;6.962;2022-09-14T09:50:25;19.20;99.90
44487;DHT22;30191;50.908;6.962;2022-09-14T09:52:54;19.20;99.90
44487;DHT22;30191;50.908;6.962;2022-09-14T09:55:34;19.10;99.90
44487;DHT22;30191;50.908;6.962;2022-09-14T10:01:05;19.10;99.90
44487;DHT22;30191;50.908;6.962;2022-09-14T10:03:40;19.10;99.90
44487;DHT22;30191;50.908;6.962;2022-09-14T10:06:09;19.10;99.90
44487;DHT22;30191;50.908;6.962;2022-09-14T10:08:44;19.10;99.90
44487;DHT22;30191;50.908;6.962;2022-09-14T10:13:54;19.30;99.90
44487;DHT22;30191;50.908;6.962;2022-09-14T10:16:31;19.40;99.90
44487;DHT22;30191;50.908;6.962;2022-09-14T10:18:57;19.40;99.90
44487;DHT22;30191;50.908;6.962;2022-09-14T10:21:26;19.40;99.90
44487;DHT22;30191;50.908;6.962;2022-09-14T10:24:14;19.30;99.90
44487;DHT22;30191;50.908;6.962;2022-09-14T10:26:41;19.30;99.90
44487;DHT22;30191;50.908;6.962;2022-09-14T10:32:00;19.20;99.90
44487;DHT22;30191;50.908;6.962;2022-09-14T10:34:35;19.10;99.90
44487;DHT22;30191;50.908;6.962;2022-09-14T10:37:23;19.10;99.90
44487;DHT22;30191;50.908;6.962;2022-09-14T10:40:10;19.10;99.90
44487;DHT22;30191;50.908;6.962;2022-09-14T11:07:08;18.90;99.90
44487;DHT22;30191;50.908;6.962;2022-09-14T11:12:41;18.90;99.90
44487;DHT22;30191;50.908;6.962;2022-09-14T11:18:20;18.80;99.90
44487;DHT22;30191;50.908;6.962;2022-09-14T11:21:02;18.80;99.90
44487;DHT22;30191;50.908;6.962;2022-09-14T11:26:16;18.90;99.90
44487;DHT22;30191;50.908;6.962;2022-09-14T11:29:26;18.90;99.90
44487;DHT22;30191;50.908;6.962;2022-09-14T11:32:14;18.90;99.90
44487;DHT22;30191;50.908;6.962;2022-09-14T11:34:45;18.90;99.90
44487;DHT22;30191;50.908;6.962;2022-09-14T11:37:16;19.00;99.90
44487;DHT22;30191;50.908;6.962;2022-09-14T11:39:59;19.10;99.90
44487;DHT22;30191;50.908;6.962;2022-09-14T11:42:39;19.20;99.90
44487;DHT22;30191;50.908;6.962;2022-09-14T11:45:16;19.30;99.90
44487;DHT22;30191;50.908;6.962;2022-09-14T11:47:49;19.40;99.90
44487;DHT22;30191;50.908;6.962;2022-09-14T11:50:22;19.60;99.90
44487;DHT22;30191;50.908;6.962;2022-09-14T11:55:28;19.80;99.90
44487;DHT22;30191;50.908;6.962;2022-09-14T11:57:54;19.80;99.90
44487;DHT22;30191;50.908;6.962;2022-09-14T12:03:19;19.80;99.90
44487;DHT22;30191;50.908;6.962;2022-09-14T12:05:47;19.80;99.90
44487;DHT22;30191;50.908;6.962;2022-09-14T12:13:35;19.80;99.90
44487;DHT22;30191;50.908;6.962;2022-09-14T12:16:07;19.70;99.90
44487;DHT22;30191;50.908;6.962;2022-09-14T12:18:38;19.90;99.90
44487;DHT22;30191;50.908;6.962;2022-09-14T12:21:21;19.90;99.90
44487;DHT22;30191;50.908;6.962;2022-09-14T12:23:49;19.90;99.90
44487;DHT22;30191;50.908;6.962;2022-09-14T12:28:47;20.10;99.90
44487;DHT22;30191;50.908;6.962;2022-09-14T12:34:23;20.00;99.90
44487;DHT22;30191;50.908;6.962;2022-09-14T12:39:21;19.90;99.90
44487;DHT22;30191;50.908;6.962;2022-09-14T12:44:33;19.70;99.90
44487;DHT22;30191;50.908;6.962;2022-09-14T12:49:51;19.50;99.90
44487;DHT22;30191;50.908;6.962;2022-09-14T12:52:41;19.40;99.90
44487;DHT22;30191;50.908;6.962;2022-09-14T12:59:14;19.40;99.90
44487;DHT22;30191;50.908;6.962;2022-09-14T13:04:44;19.40;99.90
44487;DHT22;30191;50.908;6.962;2022-09-14T13:07:17;19.40;99.90
44487;DHT22;30191;50.908;6.962;2022-09-14T13:09:46;19.40;99.90
44487;DHT22;30191;50.908;6.962;2022-09-14T13:12:14;19.30;99.90
44487;DHT22;30191;50.908;6.962;2022-09-14T13:14:46;19.30;99.90
44487;DHT22;30191;50.908;6.962;2022-09-14T13:17:16;19.20;99.90
44487;DHT22;30191;50.908;6.962;2022-09-14T13:19:42;19.30;99.90
44487;DHT22;30191;50.908;6.962;2022-09-14T13:22:22;19.30;99.90
44487;DHT22;30191;50.908;6.962;2022-09-14T13:24:52;19.40;99.90
44487;DHT22;30191;50.908;6.962;2022-09-14T13:27:32;19.40;99.90
44487;DHT22;30191;50.908;6.962;2022-09-14T13:30:04;19.40;99.90
44487;DHT22;30191;50.908;6.962;2022-09-14T13:32:31;19.40;99.90
44487;DHT22;30191;50.908;6.962;2022-09-14T13:34:59;19.40;99.90
44487;DHT22;30191;50.908;6.962;2022-09-14T13:37:25;19.30;99.90
44487;DHT22;30191;50.908;6.962;2022-09-14T13:39:53;19.30;99.90
44487;DHT22;30191;50.908;6.962;2022-09-14T13:42:21;19.20;99.90
44487;DHT22;30191;50.908;6.962;2022-09-14T13:44:48;19.20;99.90
44487;DHT22;30191;50.908;6.962;2022-09-14T13:47:19;19.10;99.90
44487;DHT22;30191;50.908;6.962;2022-09-14T13:49:47;19.10;99.90
44487;DHT22;30191;50.908;6.962;2022-09-14T13:54:47;19.20;99.90
44487;DHT22;30191;50.908;6.962;2022-09-14T13:57:16;19.20;99.90
44487;DHT22;30191;50.908;6.962;2022-09-14T14:00:05;19.20;99.90
44487;DHT22;30191;50.908;6.962;2022-09-14T14:02:48;19.10;99.90
44487;DHT22;30191;50.908;6.962;2022-09-14T14:05:30;19.20;99.90
44487;DHT22;30191;50.908;6.962;2022-09-14T14:07:59;19.20;99.90
44487;DHT22;30191;50.908;6.962;2022-09-14T14:10:30;19.20;99.90
44487;DHT22;30191;50.908;6.962;2022-09-14T14:12:56;19.20;99.90
44487;DHT22;30191;50.908;6.962;2022-09-14T14:17:48;19.20;99.90
44487;DHT22;30191;50.908;6.962;2022-09-14T14:25:38;19.20;99.90
44487;DHT22;30191;50.908;6.962;2022-09-14T14:28:14;19.10;99.90
44487;DHT22;30191;50.908;6.962;2022-09-14T14:30:41;19.00;99.90
44487;DHT22;30191;50.908;6.962;2022-09-14T14:33:15;19.00;99.90
44487;DHT22;30191;50.908;6.962;2022-09-14T14:35:43;19.00;99.90
44487;DHT22;30191;50.908;6.962;2022-09-14T14:38:12;18.80;99.90
44487;DHT22;30191;50.908;6.962;2022-09-14T14:40:39;18.80;99.90
44487;DHT22;30191;50.908;6.962;2022-09-14T14:43:15;18.70;99.90
44487;DHT22;30191;50.908;6.962;2022-09-14T14:45:43;18.80;99.90
44487;DHT22;30191;50.908;6.962;2022-09-14T14:48:12;18.80;99.90
44487;DHT22;30191;50.908;6.962;2022-09-14T14:50:38;18.80;99.90
44487;DHT22;30191;50.908;6.962;2022-09-14T14:53:05;18.70;99.90
44487;DHT22;30191;50.908;6.962;2022-09-14T14:55:31;18.60;99.90
44487;DHT22;30191;50.908;6.962;2022-09-14T14:57:59;18.60;99.90
44487;DHT22;30191;50.908;6.962;2022-09-14T15:00:30;18.60;99.90
44487;DHT22;30191;50.908;6.962;2022-09-14T15:02:56;18.60;99.90
44487;DHT22;30191;50.908;6.962;2022-09-14T15:05:23;18.60;99.90
44487;DHT22;30191;50.908;6.962;2022-09-14T15:07:48;18.80;99.90
44487;DHT22;30191;50.908;6.962;2022-09-14T15:10:17;18.80;99.90
44487;DHT22;30191;50.908;6.962;2022-09-14T15:12:43;18.60;99.90
44487;DHT22;30191;50.908;6.962;2022-09-14T15:15:16;18.70;99.90
44487;DHT22;30191;50.908;6.962;2022-09-14T15:17:42;18.60;99.90
44487;DHT22;30191;50.908;6.962;2022-09-14T15:20:09;18.60;99.90
44487;DHT22;30191;50.908;6.962;2022-09-14T15:22:35;18.70;99.90
44487;DHT22;30191;50.908;6.962;2022-09-14T15:25:02;18.60;99.90
44487;DHT22;30191;50.908;6.962;2022-09-14T15:27:28;18.50;99.90
44487;DHT22;30191;50.908;6.962;2022-09-14T15:29:54;18.40;99.90
44487;DHT22;30191;50.908;6.962;2022-09-14T15:32:22;18.40;99.90
44487;DHT22;30191;50.908;6.962;2022-09-14T15:34:48;18.40;99.90
44487;DHT22;30191;50.908;6.962;2022-09-14T15:37:19;18.40;99.90
44487;DHT22;30191;50.908;6.962;2022-09-14T15:39:51;18.40;99.90
44487;DHT22;30191;50.908;6.962;2022-09-14T15:42:19;18.40;99.90
44487;DHT22;30191;50.908;6.962;2022-09-14T15:44:45;18.40;99.90
44487;DHT22;30191;50.908;6.962;2022-09-14T15:47:12;18.40;99.90
44487;DHT22;30191;50.908;6.962;2022-09-14T15:49:41;18.40;99.90
44487;DHT22;30191;50.908;6.962;2022-09-14T15:52:08;18.40;99.90
44487;DHT22;30191;50.908;6.962;2022-09-14T15:54:35;18.40;99.90
44487;DHT22;30191;50.908;6.962;2022-09-14T15:57:03;18.40;99.90
44487;DHT22;30191;50.908;6.962;2022-09-14T15:59:28;18.40;99.90
44487;DHT22;30191;50.908;6.962;2022-09-14T16:01:55;18.30;99.90
44487;DHT22;30191;50.908;6.962;2022-09-14T16:04:21;18.40;99.90
44487;DHT22;30191;50.908;6.962;2022-09-14T16:06:47;18.40;99.90
44487;DHT22;30191;50.908;6.962;2022-09-14T16:09:15;18.30;99.90
44487;DHT22;30191;50.908;6.962;2022-09-14T16:11:41;18.30;99.90
44487;DHT22;30191;50.908;6.962;2022-09-14T16:14:08;18.20;99.90
44487;DHT22;30191;50.908;6.962;2022-09-14T16:16:36;18.10;99.90
44487;DHT22;30191;50.908;6.962;2022-09-14T16:19:12;18.20;99.90
44487;DHT22;30191;50.908;6.962;2022-09-14T16:21:39;18.10;99.90
44487;DHT22;30191;50.908;6.962;2022-09-14T16:24:07;18.10;99.90
44487;DHT22;30191;50.908;6.962;2022-09-14T16:26:35;18.10;99.90
44487;DHT22;30191;50.908;6.962;2022-09-14T16:29:02;18.00;99.90
44487;DHT22;30191;50.908;6.962;2022-09-14T16:31:31;18.00;99.90
44487;DHT22;30191;50.908;6.962;2022-09-14T16:33:59;18.00;99.90
44487;DHT22;30191;50.908;6.962;2022-09-14T16:36:27;18.10;99.90
44487;DHT22;30191;50.908;6.962;2022-09-14T16:38:59;18.00;99.90
44487;DHT22;30191;50.908;6.962;2022-09-14T16:41:25;18.00;99.90
44487;DHT22;30191;50.908;6.962;2022-09-14T16:43:55;18.00;99.90
44487;DHT22;30191;50.908;6.962;2022-09-14T16:46:22;17.90;99.90
44487;DHT22;30191;50.908;6.962;2022-09-14T16:48:48;17.90;99.90
44487;DHT22;30191;50.908;6.962;2022-09-14T16:51:16;17.80;99.90
44487;DHT22;30191;50.908;6.962;2022-09-14T16:53:43;17.80;99.90
44487;DHT22;30191;50.908;6.962;2022-09-14T16:58:46;17.80;99.90
44487;DHT22;30191;50.908;6.962;2022-09-14T17:03:47;17.80;99.90
44487;DHT22;30191;50.908;6.962;2022-09-14T17:06:15;17.70;99.90
44487;DHT22;30191;50.908;6.962;2022-09-14T17:08:42;17.70;99.90
44487;DHT22;30191;50.908;6.962;2022-09-14T17:11:08;17.70;99.90
44487;DHT22;30191;50.908;6.962;2022-09-14T17:13:34;17.70;99.90
44487;DHT22;30191;50.908;6.962;2022-09-14T17:16:14;17.70;99.90
44487;DHT22;30191;50.908;6.962;2022-09-14T17:18:41;17.60;99.90
44487;DHT22;30191;50.908;6.962;2022-09-14T17:21:12;17.50;99.90
44487;DHT22;30191;50.908;6.962;2022-09-14T17:23:39;17.50;99.90
44487;DHT22;30191;50.908;6.962;2022-09-14T17:26:10;17.50;99.90
44487;DHT22;30191;50.908;6.962;2022-09-14T17:28:37;17.60;99.90
44487;DHT22;30191;50.908;6.962;2022-09-14T17:31:04;17.60;99.90
44487;DHT22;30191;50.908;6.962;2022-09-14T17:33:30;17.60;99.90
44487;DHT22;30191;50.908;6.962;2022-09-14T17:35:57;17.50;99.90
44487;DHT22;30191;50.908;6.962;2022-09-14T17:38:30;17.60;99.90
44487;DHT22;30191;50.908;6.962;2022-09-14T17:41:14;17.60;99.90
44487;DHT22;30191;50.908;6.962;2022-09-14T17:43:41;17.50;99.90
44487;DHT22;30191;50.908;6.962;2022-09-14T17:46:12;17.50;99.90
44487;DHT22;30191;50.908;6.962;2022-09-14T17:48:39;17.50;99.90
44487;DHT22;30191;50.908;6.962;2022-09-14T17:51:10;17.60;99.90
44487;DHT22;30191;50.908;6.962;2022-09-14T17:53:38;17.60;99.90
44487;DHT22;30191;50.908;6.962;2022-09-14T17:56:06;17.60;99.90
44487;DHT22;30191;50.908;6.962;2022-09-14T17:58:32;17.60;99.90
44487;DHT22;30191;50.908;6.962;2022-09-14T18:01:03;17.50;99.90
44487;DHT22;30191;50.908;6.962;2022-09-14T18:03:30;17.50;99.90